.
WxDataArchive / Data Records for 2009-10-27
2009-10-26 October 2009 2009-10-28

Data Records for Tuesday, 27 October 2009

Time	Temp	Chill	HIndex	Humid	Dewpt	 Wind 	HiWind	WindDir	Rain 	Barom 
-----	----	-----	------	-----	-----	------	------	-------	-----	----- 
00:00	53.6	53.6	53.6	55	37.8	0	2	248	0.00	30.010 
00:05	53.5	53.5	53.5	54	37.3	0	2	248	0.00	30.010 
00:10	53.5	53.5	53.5	54	37.3	0	2	248	0.00	30.010 
00:15	53.3	53.3	53.3	55	37.5	0	1	248	0.00	30.008 
00:20	53.2	53.2	53.2	55	37.5	0	1	248	0.00	30.008 
00:25	52.9	52.9	52.9	55	37.2	0	0	---	0.00	30.008 
00:30	52.8	52.8	52.8	56	37.5	0	0	---	0.00	30.007 
00:35	52.6	52.6	52.6	57	37.8	0	0	---	0.00	30.007 
00:40	52.5	52.5	52.5	58	38.2	0	0	---	0.00	30.007 
00:45	52.2	52.2	52.2	58	37.9	0	0	---	0.00	30.007 
00:50	52.0	52.0	52.0	58	37.7	0	0	---	0.00	30.007 
00:55	51.9	51.9	51.9	59	38.0	0	0	---	0.00	30.007 
01:00	51.7	51.7	51.7	60	38.3	0	0	---	0.00	30.004 
01:05	51.4	51.4	51.4	61	38.4	0	0	---	0.00	30.004 
01:10	51.3	51.3	51.3	61	38.3	0	0	---	0.00	30.004 
01:15	51.1	51.1	51.1	64	39.4	0	0	---	0.00	29.997 
01:20	51.0	51.0	51.0	64	39.3	0	0	---	0.00	29.997 
01:25	50.7	50.7	50.7	63	38.6	0	0	---	0.00	29.997 
01:30	50.5	50.5	50.5	63	38.4	0	0	---	0.00	29.996 
01:35	50.5	50.5	50.5	64	38.8	0	0	---	0.00	29.996 
01:40	50.4	50.4	50.4	64	38.7	0	0	---	0.00	29.996 
01:45	50.4	50.4	50.4	65	39.1	0	0	---	0.00	29.996 
01:50	50.2	50.2	50.2	64	38.5	0	0	---	0.00	29.996 
01:55	50.2	50.2	50.2	65	38.9	0	0	---	0.00	29.996 
02:00	50.1	50.1	50.1	66	39.2	0	0	---	0.00	29.990 
02:05	49.9	49.9	49.9	67	39.4	0	0	---	0.00	29.990 
02:10	49.8	49.8	49.8	67	39.3	0	0	---	0.00	29.990 
02:15	49.6	49.6	49.6	68	39.5	0	0	---	0.00	29.993 
02:20	49.6	49.6	49.6	69	39.9	0	0	---	0.00	29.993 
02:25	49.6	49.6	49.6	68	39.5	0	0	---	0.00	29.993 
02:30	49.6	49.6	49.6	68	39.5	0	0	---	0.00	29.992 
02:35	49.6	49.6	49.6	69	39.9	0	0	---	0.00	29.992 
02:40	49.6	49.6	49.6	69	39.9	0	0	---	0.00	29.992 
02:45	49.8	49.8	49.8	70	40.4	0	0	---	0.00	29.995 
02:50	49.8	49.8	49.8	70	40.4	0	0	---	0.00	29.995 
02:55	49.8	49.8	49.8	71	40.8	0	0	---	0.00	29.995 
03:00	49.9	49.9	49.9	70	40.5	0	0	---	0.00	29.993 
03:05	49.9	49.9	49.9	71	40.9	0	0	---	0.00	29.993 
03:10	50.1	50.1	50.1	71	41.1	0	0	---	0.00	29.993 
03:15	50.1	50.1	50.1	71	41.1	0	0	---	0.00	29.988 
03:20	50.1	50.1	50.1	71	41.1	0	0	---	0.00	29.988 
03:25	50.2	50.2	50.2	71	41.2	0	0	---	0.00	29.988 
03:30	50.4	50.4	50.4	72	41.7	0	0	---	0.00	29.983 
03:35	50.5	50.5	50.5	72	41.8	0	0	---	0.00	29.983 
03:40	50.7	50.7	50.7	71	41.6	0	0	---	0.00	29.983 
03:45	50.8	50.8	50.8	71	41.7	0	0	---	0.00	29.987 
03:50	50.8	50.8	50.8	71	41.7	0	0	---	0.00	29.987 
03:55	50.8	50.8	50.8	71	41.7	0	0	---	0.00	29.987 
04:00	51.0	51.0	51.0	72	42.3	0	1	248	0.00	29.991 
04:05	51.1	51.1	51.1	72	42.4	0	0	---	0.00	29.991 
04:10	51.3	51.3	51.3	73	42.9	0	1	248	0.00	29.991 
04:15	51.6	51.6	51.6	74	43.6	0	1	248	0.00	29.984 
04:20	51.9	51.9	51.9	76	44.6	0	2	248	0.00	29.984 
04:25	52.2	52.2	52.2	77	45.2	0	1	248	0.00	29.984 
04:30	52.5	52.5	52.5	78	45.8	0	1	248	0.00	29.983 
04:35	52.5	52.5	52.5	78	45.8	0	1	248	0.00	29.983 
04:40	52.6	52.6	52.6	79	46.3	0	1	248	0.00	29.983 
04:45	52.6	52.6	52.6	80	46.6	0	1	248	0.00	29.985 
04:50	52.8	52.8	52.8	81	47.1	0	1	248	0.00	29.985 
04:55	52.9	52.9	52.9	83	47.9	0	2	248	0.00	29.985 
05:00	52.9	52.9	52.9	84	48.2	0	2	248	0.00	29.986 
05:05	52.9	52.9	52.9	84	48.2	0	1	248	0.00	29.986 
05:10	52.9	52.9	52.9	85	48.5	1	3	248	0.00	29.986 
05:15	52.9	52.9	52.9	86	48.8	1	2	248	0.00	29.987 
05:20	52.9	52.9	52.9	86	48.8	0	2	338	0.00	29.987 
05:25	52.8	52.8	52.8	86	48.7	0	1	338	0.00	29.987 
05:30	52.8	52.8	52.8	87	49.0	0	1	338	0.00	29.990 
05:35	52.8	52.8	52.8	87	49.0	0	3	315	0.00	29.990 
05:40	52.8	52.8	52.8	87	49.0	0	1	315	0.00	29.990 
05:45	52.8	52.8	52.8	88	49.3	0	1	315	0.00	29.983 
05:50	52.6	52.6	52.6	88	49.1	0	1	315	0.00	29.983 
05:55	52.6	52.6	52.6	88	49.1	0	1	315	0.00	29.983 
06:00	52.6	52.6	52.6	88	49.1	0	1	315	0.00	29.984 
06:05	52.5	52.5	52.5	88	49.0	0	0	---	0.00	29.984 
06:10	52.5	52.5	52.5	89	49.4	0	1	315	0.00	29.984 
06:15	52.5	52.5	52.5	89	49.4	0	0	---	0.00	29.989 
06:20	52.5	52.5	52.5	89	49.4	0	1	315	0.00	29.989 
06:25	52.5	52.5	52.5	89	49.4	0	1	315	0.00	29.989 
06:30	52.5	52.5	52.5	89	49.4	0	0	---	0.00	29.992 
06:35	52.5	52.5	52.5	90	49.7	0	1	315	0.00	29.992 
06:40	52.5	52.5	52.5	90	49.7	0	0	---	0.00	29.992 
06:45	52.5	52.5	52.5	90	49.7	0	0	---	0.00	29.992 
06:50	52.5	52.5	52.5	90	49.7	0	2	315	0.00	29.992 
06:55	52.5	52.5	52.5	90	49.7	0	0	---	0.00	29.992 
07:00	52.5	52.5	52.5	90	49.7	0	0	---	0.00	29.998 
07:05	52.5	52.5	52.5	90	49.7	0	1	315	0.00	29.998 
07:10	52.5	52.5	52.5	90	49.7	0	0	---	0.00	29.998 
07:15	52.5	52.5	52.5	91	49.9	0	0	---	0.00	30.004 
07:20	52.5	52.5	52.5	91	49.9	0	1	315	0.00	30.004 
07:25	52.3	52.3	52.3	91	49.8	0	0	---	0.00	30.004 
07:30	52.3	52.3	52.3	91	49.8	0	0	---	0.00	30.001 
07:35	52.3	52.3	52.3	91	49.8	0	1	315	0.00	30.001 
07:40	52.3	52.3	52.3	91	49.8	0	0	---	0.00	30.001 
07:45	52.3	52.3	52.3	91	49.8	0	0	---	0.00	30.000 
07:50	52.3	52.3	52.3	91	49.8	0	0	---	0.00	30.000 
07:55	52.3	52.3	52.3	91	49.8	0	0	---	0.00	30.000 
08:00	52.3	52.3	52.3	91	49.8	0	0	---	0.00	30.003 
08:05	52.3	52.3	52.3	91	49.8	0	0	---	0.00	30.003 
08:10	52.3	52.3	52.3	91	49.8	0	0	---	0.00	30.003 
08:15	52.2	52.2	52.2	91	49.7	0	0	---	0.00	30.004 
08:20	52.2	52.2	52.2	91	49.7	0	0	---	0.00	30.004 
08:25	52.2	52.2	52.2	91	49.7	0	0	---	0.00	30.004 
08:30	52.2	52.2	52.2	91	49.7	0	0	---	0.00	30.002 
08:35	52.3	52.3	52.3	92	50.0	0	0	---	0.00	30.002 
08:40	52.3	52.3	52.3	92	50.0	0	0	---	0.00	30.002 
08:45	52.3	52.3	52.3	91	49.8	0	0	---	0.00	30.012 
08:50	52.3	52.3	52.3	91	49.8	0	1	315	0.00	30.012 
08:55	52.3	52.3	52.3	91	49.8	0	0	---	0.00	30.012 
09:00	52.3	52.3	52.3	91	49.8	0	0	---	0.00	30.012 
09:05	52.3	52.3	52.3	91	49.8	0	0	---	0.00	30.012 
09:10	52.3	52.3	52.3	91	49.8	0	0	---	0.00	30.012 
09:15	52.5	52.5	52.5	91	49.9	0	0	---	0.00	30.013 
09:20	52.5	52.5	52.5	90	49.7	0	1	315	0.00	30.013 
09:25	52.5	52.5	52.5	90	49.7	0	1	315	0.00	30.013 
09:30	52.3	52.3	52.3	90	49.5	0	3	90	0.00	30.015 
09:35	52.2	52.2	52.2	89	49.1	0	1	90	0.00	30.015 
09:40	52.0	52.0	52.0	89	48.9	0	1	90	0.00	30.015 
09:45	52.0	52.0	52.0	89	48.9	0	0	---	0.00	30.021 
09:50	51.9	51.9	51.9	88	48.5	0	0	---	0.00	30.021 
09:55	51.7	51.7	51.7	88	48.3	0	2	315	0.00	30.021 
10:00	51.4	51.4	51.4	88	48.0	0	1	315	0.00	30.028 
10:05	51.4	51.4	51.4	88	48.0	0	1	315	0.00	30.028 
10:10	51.3	51.3	51.3	88	47.9	0	0	---	0.00	30.028 
10:15	51.3	51.3	51.3	88	47.9	0	1	315	0.00	30.021 
10:20	51.3	51.3	51.3	88	47.9	0	1	315	0.00	30.021 
10:25	51.3	51.3	51.3	88	47.9	0	0	---	0.00	30.021 
10:30	51.4	51.4	51.4	88	48.0	0	1	315	0.00	30.020 
10:35	51.4	51.4	51.4	88	48.0	0	2	315	0.00	30.020 
10:40	51.4	51.4	51.4	87	47.7	0	1	315	0.00	30.020 
10:45	51.4	51.4	51.4	87	47.7	0	0	---	0.00	30.020 
10:50	51.6	51.6	51.6	87	47.9	0	0	---	0.00	30.020 
10:55	51.6	51.6	51.6	87	47.9	0	0	---	0.00	30.020 
11:00	51.6	51.6	51.6	87	47.9	0	0	---	0.00	30.027 
11:05	51.7	51.7	51.7	87	48.0	0	1	315	0.00	30.027 
11:10	51.7	51.7	51.7	87	48.0	0	0	---	0.00	30.027 
11:15	51.7	51.7	51.7	87	48.0	0	1	315	0.00	30.030 
11:20	51.9	51.9	51.9	87	48.2	0	1	315	0.00	30.030 
11:25	51.9	51.9	51.9	87	48.2	0	1	315	0.00	30.030 
11:30	51.9	51.9	51.9	87	48.2	0	1	315	0.00	30.033 
11:35	52.0	52.0	52.0	87	48.3	0	1	315	0.00	30.033 
11:40	51.9	51.9	51.9	86	47.8	0	2	315	0.00	30.033 
11:45	52.0	52.0	52.0	86	47.9	0	1	0	0.00	30.033 
11:50	52.0	52.0	52.0	86	47.9	0	1	0	0.00	30.033 
11:55	52.0	52.0	52.0	86	47.9	0	0	---	0.00	30.033 
12:00	52.0	52.0	52.0	86	47.9	0	1	0	0.00	30.033 
12:05	52.0	52.0	52.0	87	48.3	0	1	0	0.00	30.033 
12:10	52.0	52.0	52.0	87	48.3	0	0	---	0.00	30.033 
12:15	52.0	52.0	52.0	87	48.3	0	1	0	0.00	30.034 
12:20	52.2	52.2	52.2	87	48.4	0	1	0	0.00	30.034 
12:25	52.2	52.2	52.2	87	48.4	0	2	135	0.00	30.034 
12:30	52.2	52.2	52.2	87	48.4	0	1	135	0.00	30.028 
12:35	52.2	52.2	52.2	87	48.4	0	2	135	0.00	30.028 
12:40	52.2	52.2	52.2	87	48.4	0	2	135	0.00	30.028 
12:45	52.2	52.2	52.2	87	48.4	0	1	135	0.00	30.030 
12:50	52.2	52.2	52.2	87	48.4	0	2	135	0.00	30.030 
12:55	52.3	52.3	52.3	86	48.2	1	3	135	0.00	30.030 
13:00	52.3	52.3	52.3	87	48.5	0	2	112	0.00	30.017 
13:05	52.5	52.5	52.5	87	48.7	0	1	112	0.00	30.017 
13:10	52.5	52.5	52.5	87	48.7	0	1	112	0.00	30.017 
13:15	52.6	52.6	52.6	86	48.5	0	1	112	0.00	30.019 
13:20	52.6	52.6	52.6	86	48.5	0	2	112	0.00	30.019 
13:25	52.6	52.6	52.6	86	48.5	0	2	112	0.00	30.019 
13:30	52.6	52.6	52.6	86	48.5	0	2	112	0.00	30.004 
13:35	52.8	52.8	52.8	86	48.7	0	2	112	0.00	30.004 
13:40	52.8	52.8	52.8	86	48.7	1	3	112	0.00	30.004 
13:45	52.8	52.8	52.8	85	48.4	0	2	112	0.00	30.002 
13:50	52.8	52.8	52.8	85	48.4	0	3	112	0.00	30.002 
13:55	52.8	52.8	52.8	85	48.4	0	2	112	0.00	30.002 
14:00	52.9	52.9	52.9	85	48.5	0	2	112	0.00	29.980 
14:05	52.9	52.9	52.9	85	48.5	0	2	112	0.00	29.980 
14:10	53.1	53.1	53.1	86	49.0	0	1	112	0.00	29.980 
14:15	53.2	53.2	53.2	85	48.8	0	1	112	0.00	29.972 
14:20	53.2	53.2	53.2	85	48.8	1	3	112	0.00	29.972 
14:25	53.2	53.2	53.2	85	48.8	0	2	112	0.00	29.972 
14:30	53.2	53.2	53.2	85	48.8	1	3	112	0.00	29.956 
14:35	53.2	53.2	53.2	84	48.5	1	4	112	0.00	29.956 
14:40	53.2	53.2	53.2	84	48.5	1	3	112	0.00	29.956 
14:45	53.2	53.2	53.2	85	48.8	0	3	112	0.00	29.940 
14:50	53.2	53.2	53.2	85	48.8	0	3	112	0.00	29.940 
14:55	53.3	53.3	53.3	85	48.9	1	5	112	0.00	29.940 
15:00	53.2	53.2	53.2	85	48.8	1	5	90	0.00	29.939 
15:05	53.2	53.2	53.2	85	48.8	1	4	90	0.00	29.939 
15:10	53.2	53.2	53.2	86	49.1	0	1	90	0.00	29.939 
15:15	53.2	53.2	53.2	86	49.1	1	4	90	0.00	29.923 
15:20	53.2	53.2	53.2	85	48.8	1	5	112	0.00	29.923 
15:25	53.2	53.2	53.2	85	48.8	2	6	112	0.00	29.923 
15:30	53.3	53.3	53.3	85	48.9	2	5	90	0.00	29.919 
15:35	53.3	53.3	53.3	85	48.9	1	3	112	0.00	29.919 
15:40	53.5	53.5	53.5	85	49.1	1	3	112	0.00	29.919 
15:45	53.5	53.5	53.5	84	48.8	1	3	112	0.00	29.910 
15:50	53.6	53.6	53.6	85	49.2	1	3	112	0.00	29.910 
15:55	53.6	53.6	53.6	85	49.2	0	2	112	0.00	29.910 
16:00	53.6	53.6	53.6	85	49.2	0	2	112	0.00	29.905 
16:05	53.6	53.6	53.6	85	49.2	1	4	112	0.00	29.905 
16:10	53.6	53.6	53.6	85	49.2	1	3	112	0.00	29.905 
16:15	53.6	53.6	53.6	85	49.2	1	3	112	0.00	29.905 
16:20	53.8	53.8	53.8	85	49.4	1	3	112	0.00	29.905 
16:25	53.8	53.8	53.8	85	49.4	1	4	90	0.00	29.905 
16:30	53.8	53.8	53.8	85	49.4	1	2	90	0.00	29.908 
16:35	53.8	53.8	53.8	85	49.4	1	3	90	0.00	29.908 
16:40	53.8	53.8	53.8	86	49.7	0	1	90	0.00	29.908 
16:45	53.8	53.8	53.8	86	49.7	0	3	90	0.00	29.911 
16:50	53.6	53.6	53.6	86	49.5	2	5	112	0.00	29.911 
16:55	53.5	53.5	53.5	87	49.7	1	3	112	0.00	29.911 
17:00	53.5	53.5	53.5	88	50.0	0	3	112	0.00	29.913 
17:05	53.3	53.3	53.3	89	50.1	0	2	112	0.00	29.913 
17:10	53.2	53.2	53.2	89	50.0	0	2	112	0.00	29.913 
17:15	53.2	53.2	53.2	90	50.3	0	3	112	0.00	29.917 
17:20	53.1	53.1	53.1	90	50.2	0	1	112	0.00	29.917 
17:25	53.1	53.1	53.1	91	50.5	0	2	112	0.00	29.917 
17:30	52.9	52.9	52.9	91	50.3	0	2	112	0.00	29.903 
17:35	52.9	52.9	52.9	92	50.6	1	4	112	0.00	29.903 
17:40	52.8	52.8	52.8	92	50.5	1	4	68	0.00	29.903 
17:45	52.8	52.8	52.8	92	50.5	1	3	90	0.00	29.899 
17:50	52.6	52.6	52.6	93	50.6	1	2	90	0.00	29.899 
17:55	52.6	52.6	52.6	93	50.6	1	3	90	0.00	29.899 
18:00	52.5	52.5	52.5	93	50.5	0	2	90	0.01	29.908 
18:05	52.5	52.5	52.5	93	50.5	0	1	90	0.00	29.908 
18:10	52.5	52.5	52.5	94	50.8	1	3	90	0.01	29.908 
18:15	52.5	52.5	52.5	94	50.8	1	2	90	0.00	29.902 
18:20	52.3	52.3	52.3	94	50.6	1	4	90	0.01	29.902 
18:25	52.3	52.3	52.3	94	50.6	0	1	90	0.00	29.902 
18:30	52.3	52.3	52.3	94	50.6	0	2	90	0.01	29.902 
18:35	52.3	52.3	52.3	94	50.6	1	3	90	0.00	29.902 
18:40	52.3	52.3	52.3	94	50.6	1	3	90	0.01	29.902 
18:45	52.3	52.3	52.3	95	50.9	1	3	90	0.00	29.897 
18:50	52.3	52.3	52.3	95	50.9	1	3	68	0.00	29.897 
18:55	52.3	52.3	52.3	95	50.9	1	4	90	0.00	29.897 
19:00	52.3	52.3	52.3	95	50.9	1	3	112	0.00	29.887 
19:05	52.3	52.3	52.3	95	50.9	1	3	90	0.00	29.887 
19:10	52.3	52.3	52.3	95	50.9	1	3	90	0.00	29.887 
19:15	52.2	52.2	52.2	95	50.8	1	3	90	0.00	29.883 
19:20	52.2	52.2	52.2	95	50.8	1	2	90	0.00	29.883 
19:25	52.2	52.2	52.2	95	50.8	1	4	90	0.00	29.883 
19:30	52.2	52.2	52.2	95	50.8	1	4	90	0.00	29.887 
19:35	52.2	52.2	52.2	95	50.8	1	3	90	0.00	29.887 
19:40	52.2	52.2	52.2	96	51.1	1	2	90	0.00	29.887 
19:45	52.2	52.2	52.2	96	51.1	1	3	90	0.00	29.876 
19:50	52.2	52.2	52.2	96	51.1	1	3	90	0.00	29.876 
19:55	52.2	52.2	52.2	96	51.1	0	3	90	0.00	29.876 
20:00	52.2	52.2	52.2	96	51.1	1	5	90	0.00	29.874 
20:05	52.2	52.2	52.2	96	51.1	0	4	112	0.00	29.874 
20:10	52.2	52.2	52.2	96	51.1	0	2	112	0.00	29.874 
20:15	52.0	52.0	52.0	96	50.9	1	2	112	0.00	29.874 
20:20	52.0	52.0	52.0	96	50.9	0	2	112	0.00	29.874 
20:25	52.0	52.0	52.0	96	50.9	0	1	112	0.00	29.874 
20:30	52.0	52.0	52.0	96	50.9	0	2	112	0.00	29.870 
20:35	52.0	52.0	52.0	96	50.9	0	1	112	0.00	29.870 
20:40	52.0	52.0	52.0	96	50.9	0	1	112	0.00	29.870 
20:45	52.0	52.0	52.0	96	50.9	0	1	112	0.00	29.862 
20:50	51.9	51.9	51.9	96	50.8	0	1	112	0.00	29.862 
20:55	51.9	51.9	51.9	96	50.8	0	2	112	0.00	29.862 
21:00	51.9	51.9	51.9	96	50.8	0	2	112	0.00	29.862 
21:05	51.9	51.9	51.9	96	50.8	0	3	112	0.00	29.862 
21:10	51.9	51.9	51.9	96	50.8	0	2	112	0.00	29.862 
21:15	51.7	51.7	51.7	96	50.6	0	2	112	0.00	29.866 
21:20	51.7	51.7	51.7	96	50.6	0	2	112	0.00	29.866 
21:25	51.7	51.7	51.7	96	50.6	1	3	112	0.00	29.866 
21:30	51.7	51.7	51.7	96	50.6	0	1	112	0.00	29.869 
21:35	51.7	51.7	51.7	96	50.6	0	1	112	0.00	29.869 
21:40	51.7	51.7	51.7	96	50.6	0	2	112	0.00	29.869 
21:45	51.7	51.7	51.7	96	50.6	0	3	112	0.00	29.867 
21:50	51.7	51.7	51.7	96	50.6	0	1	112	0.00	29.867 
21:55	51.7	51.7	51.7	96	50.6	0	1	112	0.00	29.867 
22:00	51.7	51.7	51.7	96	50.6	0	0	---	0.00	29.863 
22:05	51.7	51.7	51.7	96	50.6	0	1	112	0.00	29.863 
22:10	51.7	51.7	51.7	96	50.6	0	1	112	0.00	29.863 
22:15	51.7	51.7	51.7	96	50.6	0	2	112	0.00	29.859 
22:20	51.7	51.7	51.7	96	50.6	0	0	---	0.00	29.859 
22:25	51.7	51.7	51.7	96	50.6	0	1	112	0.00	29.859 
22:30	51.7	51.7	51.7	96	50.6	0	2	112	0.00	29.847 
22:35	51.6	51.6	51.6	96	50.5	0	2	112	0.00	29.847 
22:40	51.6	51.6	51.6	96	50.5	0	1	112	0.00	29.847 
22:45	51.6	51.6	51.6	96	50.5	0	1	112	0.00	29.845 
22:50	51.6	51.6	51.6	96	50.5	0	1	112	0.00	29.845 
22:55	51.6	51.6	51.6	96	50.5	0	1	112	0.00	29.845 
23:00	51.6	51.6	51.6	96	50.5	0	1	112	0.00	29.839 
23:05	51.4	51.4	51.4	96	50.3	0	3	112	0.00	29.839 
23:10	51.6	51.6	51.6	96	50.5	0	2	112	0.00	29.839 
23:15	51.6	51.6	51.6	96	50.5	0	1	112	0.00	29.823 
23:20	51.6	51.6	51.6	96	50.5	1	4	112	0.00	29.823 
23:25	51.6	51.6	51.6	96	50.5	1	4	112	0.00	29.823 
23:30	51.6	51.6	51.6	96	50.5	1	3	90	0.00	29.809 
23:35	51.4	51.4	51.4	96	50.3	0	2	90	0.00	29.809 
23:40	51.4	51.4	51.4	96	50.3	1	3	90	0.00	29.809 
23:45	51.4	51.4	51.4	96	50.3	1	3	90	0.00	29.809 
23:50	51.4	51.4	51.4	96	50.3	1	2	158	0.00	29.809 
23:55	51.3	51.3	51.3	96	50.2	1	3	112	0.00	29.809 

CoCoRaHS
IN-AL-39
A2 Web Hosting
Creative Commons License
GoDaddy
search engine by freefind advanced

loaded 2018-11-13 18:10:20 • last modified 2010-11-18 10:43:29
Privacy PolicyDisclaimer
• wx.awcolley.com is powered by PmWiki v.2002016 •
• all content (unless otherwise noted) © 2018 A W Colley